sensor_id;sensor_type;location;lat;lon;timestamp;P1;durP1;ratioP1;P2;durP2;ratioP2
37051;SDS011;22964;52.272;13.356;2022-09-17T00:00:03;3.83;;;1.00;;
37051;SDS011;22964;52.272;13.356;2022-09-17T00:02:34;2.30;;;0.70;;
37051;SDS011;22964;52.272;13.356;2022-09-17T00:04:59;2.85;;;0.82;;
37051;SDS011;22964;52.272;13.356;2022-09-17T00:07:25;3.83;;;0.77;;
37051;SDS011;22964;52.272;13.356;2022-09-17T00:09:52;1.88;;;0.80;;
37051;SDS011;22964;52.272;13.356;2022-09-17T00:12:17;2.35;;;0.75;;
37051;SDS011;22964;52.272;13.356;2022-09-17T00:14:43;3.22;;;1.00;;
37051;SDS011;22964;52.272;13.356;2022-09-17T00:17:09;3.28;;;0.90;;
37051;SDS011;22964;52.272;13.356;2022-09-17T00:19:35;3.28;;;0.90;;
37051;SDS011;22964;52.272;13.356;2022-09-17T00:22:01;2.67;;;0.90;;
37051;SDS011;22964;52.272;13.356;2022-09-17T00:24:27;6.15;;;1.00;;
37051;SDS011;22964;52.272;13.356;2022-09-17T00:26:53;4.75;;;0.90;;
37051;SDS011;22964;52.272;13.356;2022-09-17T00:29:18;5.20;;;1.10;;
37051;SDS011;22964;52.272;13.356;2022-09-17T00:31:44;3.28;;;1.00;;
37051;SDS011;22964;52.272;13.356;2022-09-17T00:34:10;3.47;;;1.05;;
37051;SDS011;22964;52.272;13.356;2022-09-17T00:36:37;3.60;;;1.08;;
37051;SDS011;22964;52.272;13.356;2022-09-17T00:39:03;2.78;;;0.85;;
37051;SDS011;22964;52.272;13.356;2022-09-17T00:41:31;4.32;;;0.98;;
37051;SDS011;22964;52.272;13.356;2022-09-17T00:43:58;3.13;;;0.98;;
37051;SDS011;22964;52.272;13.356;2022-09-17T00:46:34;2.45;;;0.98;;
37051;SDS011;22964;52.272;13.356;2022-09-17T00:49:08;2.28;;;0.90;;
37051;SDS011;22964;52.272;13.356;2022-09-17T00:51:40;2.97;;;0.98;;
37051;SDS011;22964;52.272;13.356;2022-09-17T00:54:13;1.60;;;0.80;;
37051;SDS011;22964;52.272;13.356;2022-09-17T00:56:40;5.35;;;1.05;;
37051;SDS011;22964;52.272;13.356;2022-09-17T00:59:07;3.83;;;1.00;;
37051;SDS011;22964;52.272;13.356;2022-09-17T01:01:33;5.13;;;1.15;;
37051;SDS011;22964;52.272;13.356;2022-09-17T01:04:00;4.97;;;1.00;;
37051;SDS011;22964;52.272;13.356;2022-09-17T01:09:23;4.07;;;1.00;;
37051;SDS011;22964;52.272;13.356;2022-09-17T01:17:04;3.40;;;1.00;;
37051;SDS011;22964;52.272;13.356;2022-09-17T01:31:22;2.88;;;0.90;;
37051;SDS011;22964;52.272;13.356;2022-09-17T01:39:30;4.13;;;1.00;;
37051;SDS011;22964;52.272;13.356;2022-09-17T01:42:15;2.92;;;1.00;;
37051;SDS011;22964;52.272;13.356;2022-09-17T01:44:50;3.05;;;1.00;;
37051;SDS011;22964;52.272;13.356;2022-09-17T01:47:36;3.00;;;0.90;;
37051;SDS011;22964;52.272;13.356;2022-09-17T01:50:07;2.67;;;0.90;;
37051;SDS011;22964;52.272;13.356;2022-09-17T01:52:36;4.05;;;1.05;;
37051;SDS011;22964;52.272;13.356;2022-09-17T01:55:07;4.60;;;1.00;;
37051;SDS011;22964;52.272;13.356;2022-09-17T01:57:37;3.97;;;1.20;;
37051;SDS011;22964;52.272;13.356;2022-09-17T02:00:23;3.40;;;1.00;;
37051;SDS011;22964;52.272;13.356;2022-09-17T02:05:40;4.38;;;0.98;;
37051;SDS011;22964;52.272;13.356;2022-09-17T02:08:21;2.50;;;0.90;;
37051;SDS011;22964;52.272;13.356;2022-09-17T02:11:09;3.42;;;1.20;;
37051;SDS011;22964;52.272;13.356;2022-09-17T02:19:07;3.42;;;1.02;;
37051;SDS011;22964;52.272;13.356;2022-09-17T02:21:46;2.90;;;1.00;;
37051;SDS011;22964;52.272;13.356;2022-09-17T02:27:04;3.20;;;1.00;;
37051;SDS011;22964;52.272;13.356;2022-09-17T02:29:40;3.63;;;1.40;;
37051;SDS011;22964;52.272;13.356;2022-09-17T02:32:07;2.72;;;1.00;;
37051;SDS011;22964;52.272;13.356;2022-09-17T02:34:34;6.00;;;1.15;;
37051;SDS011;22964;52.272;13.356;2022-09-17T02:37:00;2.20;;;0.85;;
37051;SDS011;22964;52.272;13.356;2022-09-17T02:39:27;4.47;;;1.10;;
37051;SDS011;22964;52.272;13.356;2022-09-17T02:41:59;2.78;;;1.00;;
37051;SDS011;22964;52.272;13.356;2022-09-17T02:56:03;3.42;;;1.20;;
37051;SDS011;22964;52.272;13.356;2022-09-17T02:58:56;3.25;;;0.98;;
37051;SDS011;22964;52.272;13.356;2022-09-17T03:01:32;2.72;;;0.95;;
37051;SDS011;22964;52.272;13.356;2022-09-17T03:04:31;3.10;;;1.00;;
37051;SDS011;22964;52.272;13.356;2022-09-17T03:06:59;3.97;;;1.00;;
37051;SDS011;22964;52.272;13.356;2022-09-17T03:09:30;3.25;;;1.08;;
37051;SDS011;22964;52.272;13.356;2022-09-17T03:11:55;3.28;;;1.20;;
37051;SDS011;22964;52.272;13.356;2022-09-17T03:14:21;3.15;;;0.90;;
37051;SDS011;22964;52.272;13.356;2022-09-17T03:16:46;3.13;;;1.20;;
37051;SDS011;22964;52.272;13.356;2022-09-17T03:19:12;3.30;;;1.00;;
37051;SDS011;22964;52.272;13.356;2022-09-17T03:21:38;2.72;;;0.98;;
37051;SDS011;22964;52.272;13.356;2022-09-17T03:24:03;3.00;;;1.13;;
37051;SDS011;22964;52.272;13.356;2022-09-17T03:26:29;3.47;;;1.20;;
37051;SDS011;22964;52.272;13.356;2022-09-17T03:28:55;3.42;;;1.20;;
37051;SDS011;22964;52.272;13.356;2022-09-17T03:31:20;2.45;;;1.05;;
37051;SDS011;22964;52.272;13.356;2022-09-17T03:33:46;3.60;;;1.02;;
37051;SDS011;22964;52.272;13.356;2022-09-17T03:36:12;3.47;;;1.13;;
37051;SDS011;22964;52.272;13.356;2022-09-17T03:38:38;3.80;;;1.30;;
37051;SDS011;22964;52.272;13.356;2022-09-17T03:41:04;2.83;;;1.00;;
37051;SDS011;22964;52.272;13.356;2022-09-17T03:43:33;2.28;;;0.90;;
37051;SDS011;22964;52.272;13.356;2022-09-17T03:45:59;6.78;;;1.48;;
37051;SDS011;22964;52.272;13.356;2022-09-17T03:48:25;3.78;;;1.20;;
37051;SDS011;22964;52.272;13.356;2022-09-17T03:50:51;5.43;;;1.10;;
37051;SDS011;22964;52.272;13.356;2022-09-17T03:53:18;4.40;;;1.25;;
37051;SDS011;22964;52.272;13.356;2022-09-17T03:55:43;3.80;;;1.20;;
37051;SDS011;22964;52.272;13.356;2022-09-17T03:58:09;3.03;;;1.05;;
37051;SDS011;22964;52.272;13.356;2022-09-17T04:00:35;2.65;;;1.02;;
37051;SDS011;22964;52.272;13.356;2022-09-17T04:03:04;3.65;;;0.90;;
37051;SDS011;22964;52.272;13.356;2022-09-17T04:05:30;3.58;;;1.00;;
37051;SDS011;22964;52.272;13.356;2022-09-17T04:07:56;3.28;;;1.10;;
37051;SDS011;22964;52.272;13.356;2022-09-17T04:10:22;3.53;;;1.00;;
37051;SDS011;22964;52.272;13.356;2022-09-17T04:12:48;2.17;;;1.00;;
37051;SDS011;22964;52.272;13.356;2022-09-17T04:15:13;3.63;;;1.10;;
37051;SDS011;22964;52.272;13.356;2022-09-17T04:17:39;3.75;;;1.10;;
37051;SDS011;22964;52.272;13.356;2022-09-17T04:20:05;4.65;;;1.25;;
37051;SDS011;22964;52.272;13.356;2022-09-17T04:22:31;3.38;;;1.23;;
37051;SDS011;22964;52.272;13.356;2022-09-17T04:24:57;3.60;;;0.85;;
37051;SDS011;22964;52.272;13.356;2022-09-17T04:27:23;4.68;;;1.02;;
37051;SDS011;22964;52.272;13.356;2022-09-17T04:29:49;5.10;;;1.13;;
37051;SDS011;22964;52.272;13.356;2022-09-17T04:32:15;2.83;;;1.05;;
37051;SDS011;22964;52.272;13.356;2022-09-17T04:34:40;3.45;;;1.10;;
37051;SDS011;22964;52.272;13.356;2022-09-17T04:37:06;2.58;;;1.00;;
37051;SDS011;22964;52.272;13.356;2022-09-17T04:39:32;4.47;;;1.20;;
37051;SDS011;22964;52.272;13.356;2022-09-17T04:41:57;4.15;;;1.20;;
37051;SDS011;22964;52.272;13.356;2022-09-17T04:44:23;7.93;;;1.08;;
37051;SDS011;22964;52.272;13.356;2022-09-17T04:46:48;3.50;;;0.98;;
37051;SDS011;22964;52.272;13.356;2022-09-17T04:49:14;2.60;;;0.90;;
37051;SDS011;22964;52.272;13.356;2022-09-17T04:51:40;2.95;;;0.93;;
37051;SDS011;22964;52.272;13.356;2022-09-17T04:54:05;5.95;;;1.10;;
37051;SDS011;22964;52.272;13.356;2022-09-17T04:56:31;3.08;;;1.13;;
37051;SDS011;22964;52.272;13.356;2022-09-17T04:58:57;2.53;;;0.98;;
37051;SDS011;22964;52.272;13.356;2022-09-17T05:01:22;2.95;;;0.90;;
37051;SDS011;22964;52.272;13.356;2022-09-17T05:03:48;4.32;;;1.10;;
37051;SDS011;22964;52.272;13.356;2022-09-17T05:06:14;2.42;;;0.80;;
37051;SDS011;22964;52.272;13.356;2022-09-17T05:08:39;2.42;;;0.80;;
37051;SDS011;22964;52.272;13.356;2022-09-17T05:11:05;3.00;;;1.00;;
37051;SDS011;22964;52.272;13.356;2022-09-17T05:13:31;5.10;;;0.90;;
37051;SDS011;22964;52.272;13.356;2022-09-17T05:15:57;2.70;;;0.90;;
37051;SDS011;22964;52.272;13.356;2022-09-17T05:18:22;3.08;;;1.08;;
37051;SDS011;22964;52.272;13.356;2022-09-17T05:20:48;3.33;;;0.90;;
37051;SDS011;22964;52.272;13.356;2022-09-17T05:23:14;3.05;;;0.90;;
37051;SDS011;22964;52.272;13.356;2022-09-17T05:25:39;2.80;;;0.93;;
37051;SDS011;22964;52.272;13.356;2022-09-17T05:28:05;6.28;;;1.27;;
37051;SDS011;22964;52.272;13.356;2022-09-17T05:30:31;6.28;;;1.10;;
37051;SDS011;22964;52.272;13.356;2022-09-17T05:33:04;3.28;;;1.17;;
37051;SDS011;22964;52.272;13.356;2022-09-17T05:35:31;3.95;;;0.85;;
37051;SDS011;22964;52.272;13.356;2022-09-17T05:38:01;5.32;;;1.05;;
37051;SDS011;22964;52.272;13.356;2022-09-17T05:40:29;3.07;;;1.10;;
37051;SDS011;22964;52.272;13.356;2022-09-17T05:42:59;5.35;;;1.02;;
37051;SDS011;22964;52.272;13.356;2022-09-17T05:45:26;2.85;;;1.00;;
37051;SDS011;22964;52.272;13.356;2022-09-17T05:47:56;2.08;;;0.90;;
37051;SDS011;22964;52.272;13.356;2022-09-17T05:50:23;2.20;;;1.00;;
37051;SDS011;22964;52.272;13.356;2022-09-17T05:52:50;3.05;;;0.95;;
37051;SDS011;22964;52.272;13.356;2022-09-17T05:55:16;4.03;;;1.10;;
37051;SDS011;22964;52.272;13.356;2022-09-17T05:57:43;4.85;;;1.20;;
37051;SDS011;22964;52.272;13.356;2022-09-17T06:00:09;5.72;;;1.25;;
37051;SDS011;22964;52.272;13.356;2022-09-17T06:02:37;4.20;;;1.10;;
37051;SDS011;22964;52.272;13.356;2022-09-17T06:05:03;3.33;;;1.10;;
37051;SDS011;22964;52.272;13.356;2022-09-17T06:07:29;4.75;;;1.40;;
37051;SDS011;22964;52.272;13.356;2022-09-17T06:09:55;5.30;;;1.15;;
37051;SDS011;22964;52.272;13.356;2022-09-17T06:12:21;2.20;;;1.00;;
37051;SDS011;22964;52.272;13.356;2022-09-17T06:14:47;5.25;;;1.67;;
37051;SDS011;22964;52.272;13.356;2022-09-17T06:17:13;4.90;;;1.20;;
37051;SDS011;22964;52.272;13.356;2022-09-17T06:19:39;5.25;;;1.30;;
37051;SDS011;22964;52.272;13.356;2022-09-17T06:22:04;4.93;;;1.30;;
37051;SDS011;22964;52.272;13.356;2022-09-17T06:24:30;5.30;;;1.50;;
37051;SDS011;22964;52.272;13.356;2022-09-17T06:26:57;5.93;;;1.48;;
37051;SDS011;22964;52.272;13.356;2022-09-17T06:29:23;6.80;;;1.50;;
37051;SDS011;22964;52.272;13.356;2022-09-17T06:31:48;7.80;;;1.90;;
37051;SDS011;22964;52.272;13.356;2022-09-17T06:34:14;9.18;;;1.90;;
37051;SDS011;22964;52.272;13.356;2022-09-17T06:36:40;6.55;;;1.73;;
37051;SDS011;22964;52.272;13.356;2022-09-17T06:39:06;8.07;;;1.80;;
37051;SDS011;22964;52.272;13.356;2022-09-17T06:41:32;5.00;;;1.48;;
37051;SDS011;22964;52.272;13.356;2022-09-17T06:44:02;5.78;;;1.88;;
37051;SDS011;22964;52.272;13.356;2022-09-17T06:46:28;7.68;;;1.75;;
37051;SDS011;22964;52.272;13.356;2022-09-17T06:48:53;7.13;;;1.60;;
37051;SDS011;22964;52.272;13.356;2022-09-17T06:51:19;8.73;;;1.95;;
37051;SDS011;22964;52.272;13.356;2022-09-17T06:53:46;6.25;;;1.58;;
37051;SDS011;22964;52.272;13.356;2022-09-17T06:56:13;6.72;;;2.00;;
37051;SDS011;22964;52.272;13.356;2022-09-17T06:58:39;8.75;;;1.80;;
37051;SDS011;22964;52.272;13.356;2022-09-17T07:01:11;8.82;;;1.83;;
37051;SDS011;22964;52.272;13.356;2022-09-17T07:03:37;7.53;;;1.70;;
37051;SDS011;22964;52.272;13.356;2022-09-17T07:06:03;5.30;;;1.50;;
37051;SDS011;22964;52.272;13.356;2022-09-17T07:08:33;7.10;;;1.80;;
37051;SDS011;22964;52.272;13.356;2022-09-17T07:10:58;6.07;;;1.60;;
37051;SDS011;22964;52.272;13.356;2022-09-17T07:13:25;6.88;;;1.65;;
37051;SDS011;22964;52.272;13.356;2022-09-17T07:15:54;8.73;;;1.80;;
37051;SDS011;22964;52.272;13.356;2022-09-17T07:18:22;4.82;;;1.30;;
37051;SDS011;22964;52.272;13.356;2022-09-17T07:20:54;6.07;;;1.40;;
37051;SDS011;22964;52.272;13.356;2022-09-17T07:23:22;5.88;;;1.38;;
37051;SDS011;22964;52.272;13.356;2022-09-17T07:25:52;9.98;;;2.88;;
37051;SDS011;22964;52.272;13.356;2022-09-17T07:28:19;7.93;;;2.00;;
37051;SDS011;22964;52.272;13.356;2022-09-17T07:30:46;6.38;;;2.10;;
37051;SDS011;22964;52.272;13.356;2022-09-17T07:33:13;5.82;;;1.67;;
37051;SDS011;22964;52.272;13.356;2022-09-17T07:35:40;8.52;;;2.00;;
37051;SDS011;22964;52.272;13.356;2022-09-17T07:38:06;7.72;;;2.00;;
37051;SDS011;22964;52.272;13.356;2022-09-17T07:40:31;7.53;;;2.15;;
37051;SDS011;22964;52.272;13.356;2022-09-17T07:42:57;8.95;;;2.78;;
37051;SDS011;22964;52.272;13.356;2022-09-17T07:45:23;9.55;;;2.58;;
37051;SDS011;22964;52.272;13.356;2022-09-17T07:47:49;5.85;;;1.90;;
37051;SDS011;22964;52.272;13.356;2022-09-17T07:50:14;6.85;;;1.58;;
37051;SDS011;22964;52.272;13.356;2022-09-17T07:52:47;8.70;;;1.52;;
37051;SDS011;22964;52.272;13.356;2022-09-17T07:57:39;8.98;;;2.35;;
37051;SDS011;22964;52.272;13.356;2022-09-17T08:00:05;12.13;;;2.30;;
37051;SDS011;22964;52.272;13.356;2022-09-17T08:02:36;5.20;;;1.60;;
37051;SDS011;22964;52.272;13.356;2022-09-17T08:05:02;5.00;;;1.85;;
37051;SDS011;22964;52.272;13.356;2022-09-17T08:07:28;8.07;;;2.15;;
37051;SDS011;22964;52.272;13.356;2022-09-17T08:09:53;8.88;;;1.85;;
37051;SDS011;22964;52.272;13.356;2022-09-17T08:12:19;6.57;;;2.05;;
37051;SDS011;22964;52.272;13.356;2022-09-17T08:14:46;6.30;;;1.77;;
37051;SDS011;22964;52.272;13.356;2022-09-17T08:17:12;5.93;;;1.80;;
37051;SDS011;22964;52.272;13.356;2022-09-17T08:19:38;8.43;;;2.00;;
37051;SDS011;22964;52.272;13.356;2022-09-17T08:22:03;10.40;;;2.05;;
37051;SDS011;22964;52.272;13.356;2022-09-17T08:24:29;10.32;;;2.10;;
37051;SDS011;22964;52.272;13.356;2022-09-17T08:26:55;9.18;;;3.17;;
37051;SDS011;22964;52.272;13.356;2022-09-17T08:29:20;7.47;;;2.15;;
37051;SDS011;22964;52.272;13.356;2022-09-17T08:31:46;6.53;;;1.88;;
37051;SDS011;22964;52.272;13.356;2022-09-17T08:34:12;10.43;;;2.95;;
37051;SDS011;22964;52.272;13.356;2022-09-17T08:36:38;6.55;;;1.90;;
37051;SDS011;22964;52.272;13.356;2022-09-17T08:39:03;6.93;;;1.80;;
37051;SDS011;22964;52.272;13.356;2022-09-17T08:46:41;6.38;;;1.60;;
37051;SDS011;22964;52.272;13.356;2022-09-17T08:49:15;6.65;;;1.77;;
37051;SDS011;22964;52.272;13.356;2022-09-17T08:57:28;4.97;;;1.50;;
37051;SDS011;22964;52.272;13.356;2022-09-17T09:00:11;5.63;;;1.70;;
37051;SDS011;22964;52.272;13.356;2022-09-17T09:05:40;7.57;;;1.98;;
37051;SDS011;22964;52.272;13.356;2022-09-17T09:08:22;7.90;;;1.70;;
37051;SDS011;22964;52.272;13.356;2022-09-17T09:10:57;7.75;;;1.90;;
37051;SDS011;22964;52.272;13.356;2022-09-17T09:13:30;5.85;;;1.77;;
37051;SDS011;22964;52.272;13.356;2022-09-17T09:16:11;6.63;;;1.35;;
37051;SDS011;22964;52.272;13.356;2022-09-17T09:18:41;6.07;;;1.67;;
37051;SDS011;22964;52.272;13.356;2022-09-17T09:21:17;4.75;;;1.27;;
37051;SDS011;22964;52.272;13.356;2022-09-17T09:26:40;8.73;;;2.30;;
37051;SDS011;22964;52.272;13.356;2022-09-17T09:29:57;6.07;;;2.08;;
37051;SDS011;22964;52.272;13.356;2022-09-17T09:34:48;4.20;;;1.20;;
37051;SDS011;22964;52.272;13.356;2022-09-17T09:37:25;6.43;;;1.40;;
37051;SDS011;22964;52.272;13.356;2022-09-17T09:39:54;5.40;;;1.10;;
37051;SDS011;22964;52.272;13.356;2022-09-17T09:42:47;5.38;;;1.30;;
37051;SDS011;22964;52.272;13.356;2022-09-17T09:45:15;7.35;;;1.50;;
37051;SDS011;22964;52.272;13.356;2022-09-17T09:50:38;5.65;;;1.75;;
37051;SDS011;22964;52.272;13.356;2022-09-17T09:59:10;6.40;;;1.70;;
37051;SDS011;22964;52.272;13.356;2022-09-17T10:01:41;4.60;;;1.40;;
37051;SDS011;22964;52.272;13.356;2022-09-17T10:06:44;4.13;;;1.13;;
37051;SDS011;22964;52.272;13.356;2022-09-17T10:09:11;3.00;;;1.05;;
37051;SDS011;22964;52.272;13.356;2022-09-17T10:11:39;4.90;;;1.40;;
37051;SDS011;22964;52.272;13.356;2022-09-17T10:14:24;4.47;;;1.30;;
37051;SDS011;22964;52.272;13.356;2022-09-17T10:19:45;2.92;;;1.00;;
37051;SDS011;22964;52.272;13.356;2022-09-17T10:22:23;4.22;;;1.00;;
37051;SDS011;22964;52.272;13.356;2022-09-17T10:24:55;4.00;;;1.10;;
37051;SDS011;22964;52.272;13.356;2022-09-17T10:27:23;5.65;;;1.10;;
37051;SDS011;22964;52.272;13.356;2022-09-17T10:32:34;4.57;;;1.15;;
37051;SDS011;22964;52.272;13.356;2022-09-17T10:37:42;3.83;;;1.00;;
37051;SDS011;22964;52.272;13.356;2022-09-17T10:42:46;4.75;;;1.17;;
37051;SDS011;22964;52.272;13.356;2022-09-17T10:45:32;7.68;;;1.40;;
37051;SDS011;22964;52.272;13.356;2022-09-17T10:47:58;5.90;;;1.20;;
37051;SDS011;22964;52.272;13.356;2022-09-17T10:50:25;7.90;;;1.48;;
37051;SDS011;22964;52.272;13.356;2022-09-17T10:53:03;4.07;;;1.10;;
37051;SDS011;22964;52.272;13.356;2022-09-17T11:09:24;4.72;;;1.08;;
37051;SDS011;22964;52.272;13.356;2022-09-17T11:20:21;3.83;;;1.00;;
37051;SDS011;22964;52.272;13.356;2022-09-17T11:22:53;3.90;;;1.02;;
37051;SDS011;22964;52.272;13.356;2022-09-17T11:30:32;4.60;;;1.73;;
37051;SDS011;22964;52.272;13.356;2022-09-17T11:33:30;5.50;;;1.05;;
37051;SDS011;22964;52.272;13.356;2022-09-17T11:36:10;3.88;;;1.15;;
37051;SDS011;22964;52.272;13.356;2022-09-17T11:38:49;3.10;;;1.05;;
37051;SDS011;22964;52.272;13.356;2022-09-17T11:41:26;5.18;;;1.20;;
37051;SDS011;22964;52.272;13.356;2022-09-17T11:44:19;3.83;;;1.10;;
37051;SDS011;22964;52.272;13.356;2022-09-17T11:49:24;4.97;;;1.23;;
37051;SDS011;22964;52.272;13.356;2022-09-17T11:52:00;2.85;;;1.13;;
37051;SDS011;22964;52.272;13.356;2022-09-17T11:54:53;4.93;;;1.30;;
37051;SDS011;22964;52.272;13.356;2022-09-17T11:57:26;6.03;;;1.70;;
37051;SDS011;22964;52.272;13.356;2022-09-17T12:00:16;3.22;;;0.80;;
37051;SDS011;22964;52.272;13.356;2022-09-17T12:03:00;3.40;;;1.27;;
37051;SDS011;22964;52.272;13.356;2022-09-17T12:11:16;2.75;;;0.90;;
37051;SDS011;22964;52.272;13.356;2022-09-17T12:14:22;4.03;;;1.00;;
37051;SDS011;22964;52.272;13.356;2022-09-17T12:16:57;2.70;;;0.80;;
37051;SDS011;22964;52.272;13.356;2022-09-17T12:22:16;3.65;;;1.10;;
37051;SDS011;22964;52.272;13.356;2022-09-17T12:24:45;5.78;;;1.23;;
37051;SDS011;22964;52.272;13.356;2022-09-17T12:30:15;1.52;;;0.73;;
37051;SDS011;22964;52.272;13.356;2022-09-17T12:35:21;3.92;;;1.00;;
37051;SDS011;22964;52.272;13.356;2022-09-17T12:38:06;3.22;;;1.05;;
37051;SDS011;22964;52.272;13.356;2022-09-17T12:44:17;3.97;;;1.08;;
37051;SDS011;22964;52.272;13.356;2022-09-17T12:49:33;4.93;;;0.93;;
37051;SDS011;22964;52.272;13.356;2022-09-17T12:52:18;4.22;;;0.88;;
37051;SDS011;22964;52.272;13.356;2022-09-17T12:57:31;2.83;;;0.90;;
37051;SDS011;22964;52.272;13.356;2022-09-17T13:10:31;3.40;;;0.95;;
37051;SDS011;22964;52.272;13.356;2022-09-17T13:15:55;6.57;;;1.17;;
37051;SDS011;22964;52.272;13.356;2022-09-17T13:24:16;3.95;;;1.10;;
37051;SDS011;22964;52.272;13.356;2022-09-17T13:26:45;4.63;;;1.00;;
37051;SDS011;22964;52.272;13.356;2022-09-17T13:29:12;5.82;;;1.10;;
37051;SDS011;22964;52.272;13.356;2022-09-17T13:31:57;3.83;;;1.45;;
37051;SDS011;22964;52.272;13.356;2022-09-17T13:34:29;2.75;;;1.10;;
37051;SDS011;22964;52.272;13.356;2022-09-17T13:36:57;4.10;;;1.00;;
37051;SDS011;22964;52.272;13.356;2022-09-17T13:44:38;6.28;;;1.20;;
37051;SDS011;22964;52.272;13.356;2022-09-17T13:47:11;3.85;;;0.98;;
37051;SDS011;22964;52.272;13.356;2022-09-17T13:49:45;4.97;;;1.03;;
37051;SDS011;22964;52.272;13.356;2022-09-17T13:52:27;3.97;;;1.00;;
37051;SDS011;22964;52.272;13.356;2022-09-17T13:54:57;3.85;;;1.10;;
37051;SDS011;22964;52.272;13.356;2022-09-17T13:57:24;2.47;;;1.00;;
37051;SDS011;22964;52.272;13.356;2022-09-17T13:59:55;3.15;;;0.98;;
37051;SDS011;22964;52.272;13.356;2022-09-17T14:04:52;7.50;;;1.15;;
37051;SDS011;22964;52.272;13.356;2022-09-17T14:09:49;5.65;;;1.45;;
37051;SDS011;22964;52.272;13.356;2022-09-17T14:15:32;4.82;;;1.10;;
37051;SDS011;22964;52.272;13.356;2022-09-17T14:20:52;3.50;;;1.17;;
37051;SDS011;22964;52.272;13.356;2022-09-17T14:23:30;6.95;;;1.20;;
37051;SDS011;22964;52.272;13.356;2022-09-17T14:25:58;3.65;;;1.00;;
37051;SDS011;22964;52.272;13.356;2022-09-17T14:28:43;4.07;;;1.10;;
37051;SDS011;22964;52.272;13.356;2022-09-17T14:31:25;4.63;;;1.40;;
37051;SDS011;22964;52.272;13.356;2022-09-17T14:33:56;5.43;;;1.13;;
37051;SDS011;22964;52.272;13.356;2022-09-17T14:36:22;5.55;;;1.20;;
37051;SDS011;22964;52.272;13.356;2022-09-17T14:38:49;3.67;;;1.13;;
37051;SDS011;22964;52.272;13.356;2022-09-17T14:41:19;3.55;;;1.08;;
37051;SDS011;22964;52.272;13.356;2022-09-17T14:43:57;3.05;;;0.90;;
37051;SDS011;22964;52.272;13.356;2022-09-17T14:46:38;4.68;;;1.10;;
37051;SDS011;22964;52.272;13.356;2022-09-17T14:51:39;4.32;;;0.95;;
37051;SDS011;22964;52.272;13.356;2022-09-17T14:54:14;6.90;;;1.10;;
37051;SDS011;22964;52.272;13.356;2022-09-17T14:59:32;5.97;;;1.02;;
37051;SDS011;22964;52.272;13.356;2022-09-17T15:02:01;6.88;;;1.00;;
37051;SDS011;22964;52.272;13.356;2022-09-17T15:04:28;5.60;;;1.85;;
37051;SDS011;22964;52.272;13.356;2022-09-17T15:07:07;2.83;;;1.00;;
37051;SDS011;22964;52.272;13.356;2022-09-17T15:09:34;4.07;;;1.10;;
37051;SDS011;22964;52.272;13.356;2022-09-17T15:11:59;6.53;;;1.15;;
37051;SDS011;22964;52.272;13.356;2022-09-17T15:14:27;7.72;;;1.20;;
37051;SDS011;22964;52.272;13.356;2022-09-17T15:16:55;2.45;;;0.70;;
37051;SDS011;22964;52.272;13.356;2022-09-17T15:19:36;1.90;;;0.85;;
37051;SDS011;22964;52.272;13.356;2022-09-17T15:22:06;0.88;;;0.45;;
37051;SDS011;22964;52.272;13.356;2022-09-17T15:27:18;1.08;;;0.50;;
37051;SDS011;22964;52.272;13.356;2022-09-17T15:32:29;0.90;;;0.50;;
37051;SDS011;22964;52.272;13.356;2022-09-17T15:37:44;0.95;;;0.50;;
37051;SDS011;22964;52.272;13.356;2022-09-17T15:40:12;0.98;;;0.50;;
37051;SDS011;22964;52.272;13.356;2022-09-17T15:42:46;0.63;;;0.45;;
37051;SDS011;22964;52.272;13.356;2022-09-17T15:50:25;1.30;;;0.45;;
37051;SDS011;22964;52.272;13.356;2022-09-17T15:53:10;1.52;;;0.70;;
37051;SDS011;22964;52.272;13.356;2022-09-17T15:55:44;2.03;;;0.40;;
37051;SDS011;22964;52.272;13.356;2022-09-17T16:00:44;0.77;;;0.40;;
37051;SDS011;22964;52.272;13.356;2022-09-17T16:06:53;1.00;;;0.60;;
37051;SDS011;22964;52.272;13.356;2022-09-17T16:08:58;1.52;;;0.60;;
37051;SDS011;22964;52.272;13.356;2022-09-17T16:11:28;2.40;;;0.70;;
37051;SDS011;22964;52.272;13.356;2022-09-17T16:13:56;3.50;;;0.70;;
37051;SDS011;22964;52.272;13.356;2022-09-17T16:16:24;0.93;;;0.38;;
37051;SDS011;22964;52.272;13.356;2022-09-17T16:18:58;1.17;;;0.40;;
37051;SDS011;22964;52.272;13.356;2022-09-17T16:21:24;1.33;;;0.60;;
37051;SDS011;22964;52.272;13.356;2022-09-17T16:23:49;2.67;;;0.65;;
37051;SDS011;22964;52.272;13.356;2022-09-17T16:26:18;1.83;;;0.60;;
37051;SDS011;22964;52.272;13.356;2022-09-17T16:28:48;1.38;;;0.50;;
37051;SDS011;22964;52.272;13.356;2022-09-17T16:31:17;1.33;;;0.75;;
37051;SDS011;22964;52.272;13.356;2022-09-17T16:33:44;2.60;;;0.57;;
37051;SDS011;22964;52.272;13.356;2022-09-17T16:36:10;1.90;;;0.55;;
37051;SDS011;22964;52.272;13.356;2022-09-17T16:38:36;0.73;;;0.40;;
37051;SDS011;22964;52.272;13.356;2022-09-17T16:41:06;1.42;;;0.68;;
37051;SDS011;22964;52.272;13.356;2022-09-17T16:43:32;0.80;;;0.40;;
37051;SDS011;22964;52.272;13.356;2022-09-17T16:48:28;1.00;;;0.50;;
37051;SDS011;22964;52.272;13.356;2022-09-17T16:50:54;1.25;;;0.70;;
37051;SDS011;22964;52.272;13.356;2022-09-17T16:53:19;2.47;;;1.17;;
37051;SDS011;22964;52.272;13.356;2022-09-17T16:55:45;3.80;;;0.75;;
37051;SDS011;22964;52.272;13.356;2022-09-17T16:58:11;1.30;;;0.60;;
37051;SDS011;22964;52.272;13.356;2022-09-17T17:00:37;1.88;;;0.60;;
37051;SDS011;22964;52.272;13.356;2022-09-17T17:03:02;1.33;;;0.60;;
37051;SDS011;22964;52.272;13.356;2022-09-17T17:05:29;2.05;;;0.63;;
37051;SDS011;22964;52.272;13.356;2022-09-17T17:07:59;1.20;;;0.50;;
37051;SDS011;22964;52.272;13.356;2022-09-17T17:10:25;1.13;;;0.70;;
37051;SDS011;22964;52.272;13.356;2022-09-17T17:12:51;1.85;;;0.50;;
37051;SDS011;22964;52.272;13.356;2022-09-17T17:15:16;1.65;;;0.60;;
37051;SDS011;22964;52.272;13.356;2022-09-17T17:17:43;1.25;;;0.43;;
37051;SDS011;22964;52.272;13.356;2022-09-17T17:20:08;1.73;;;0.60;;
37051;SDS011;22964;52.272;13.356;2022-09-17T17:22:36;2.72;;;0.60;;
37051;SDS011;22964;52.272;13.356;2022-09-17T17:25:03;3.53;;;0.68;;
37051;SDS011;22964;52.272;13.356;2022-09-17T17:27:30;1.55;;;0.45;;
37051;SDS011;22964;52.272;13.356;2022-09-17T17:29:56;2.22;;;0.80;;
37051;SDS011;22964;52.272;13.356;2022-09-17T17:32:21;0.88;;;0.50;;
37051;SDS011;22964;52.272;13.356;2022-09-17T17:34:47;1.55;;;0.70;;
37051;SDS011;22964;52.272;13.356;2022-09-17T17:37:14;2.10;;;1.00;;
37051;SDS011;22964;52.272;13.356;2022-09-17T17:39:41;1.23;;;0.70;;
37051;SDS011;22964;52.272;13.356;2022-09-17T17:42:06;1.52;;;0.80;;
37051;SDS011;22964;52.272;13.356;2022-09-17T17:44:32;1.85;;;0.90;;
37051;SDS011;22964;52.272;13.356;2022-09-17T17:46:58;2.67;;;1.08;;
37051;SDS011;22964;52.272;13.356;2022-09-17T17:49:23;2.40;;;1.20;;
37051;SDS011;22964;52.272;13.356;2022-09-17T17:51:49;2.55;;;1.10;;
37051;SDS011;22964;52.272;13.356;2022-09-17T17:54:17;2.40;;;1.10;;
37051;SDS011;22964;52.272;13.356;2022-09-17T17:56:43;3.55;;;1.00;;
37051;SDS011;22964;52.272;13.356;2022-09-17T17:59:09;5.80;;;3.97;;
37051;SDS011;22964;52.272;13.356;2022-09-17T18:01:34;4.10;;;2.10;;
37051;SDS011;22964;52.272;13.356;2022-09-17T18:04:03;2.55;;;1.60;;
37051;SDS011;22964;52.272;13.356;2022-09-17T18:06:31;3.58;;;1.10;;
37051;SDS011;22964;52.272;13.356;2022-09-17T18:08:58;2.22;;;1.13;;
37051;SDS011;22964;52.272;13.356;2022-09-17T18:11:25;3.10;;;1.20;;
37051;SDS011;22964;52.272;13.356;2022-09-17T18:13:52;3.13;;;1.60;;